Terminal Aerodrome Forecast
Issued by NWS

Home | Current Version | Previous Version | Text Only | Print | Product List | Glossary On
Versions: 1 2 3 4 5 6 7 8 9 10 11 12 13 14 15 16 17 18 19
802
FTUS46 KSEW 192118 AAA
TAFPAE
TAF AMD
KPAE 192118Z 1921/2018 16020G28KT P6SM -SHRA FEW027 OVC035
     FM200200 17015G21KT P6SM VCSH OVC025
     FM200600 15010G22KT P6SM VCSH SCT025 BKN040=

USA.gov is the U.S. government's official web portal to all federal, state and local government web resources and services.